Time;durP1;ratioP1;P1;durP2;ratioP2;P2;SDS_P1;SDS_P2;PMS_P1;PMS_P2;Temp;Humidity;BMP_temperature;BMP_pressure;BME280_temperature;BME280_humidity;BME280_pressure;Samples;Min_cycle;Max_cycle;Signal;HPM_P1;HPM_P2
2023/04/27 00:01:10;;;;;;;13.93;8.25;;;14.70;89.10;;;;;;5067461;28;20028;-59
2023/04/27 00:03:36;;;;;;;15.52;8.55;;;14.70;89.20;;;;;;5060729;28;20037;-61
2023/04/27 00:06:02;;;;;;;12.73;8.50;;;14.70;89.50;;;;;;5065267;28;20514;-62
2023/04/27 00:08:28;;;;;;;13.63;8.90;;;14.70;89.60;;;;;;5064915;28;20604;-60
2023/04/27 00:10:54;;;;;;;11.60;8.30;;;14.70;89.60;;;;;;5067765;28;20463;-60
2023/04/27 00:13:20;;;;;;;12.45;8.75;;;14.70;89.60;;;;;;5068169;28;20068;-60
2023/04/27 00:15:46;;;;;;;11.80;8.35;;;14.70;89.70;;;;;;5063404;28;20048;-60
2023/04/27 00:18:11;;;;;;;10.95;8.57;;;14.70;89.70;;;;;;5064492;28;20037;-60
2023/04/27 00:20:37;;;;;;;10.80;7.72;;;14.70;90.00;;;;;;5057275;28;20562;-60
2023/04/27 00:23:03;;;;;;;10.35;7.82;;;14.70;90.00;;;;;;5068358;28;20024;-60
2023/04/27 00:25:28;;;;;;;11.60;8.23;;;14.70;90.00;;;;;;5069894;28;20801;-61
2023/04/27 00:27:54;;;;;;;11.57;7.82;;;14.70;90.10;;;;;;5062291;28;20415;-60
2023/04/27 00:30:20;;;;;;;14.18;8.98;;;14.70;90.20;;;;;;5073095;28;20033;-60
2023/04/27 00:32:45;;;;;;;11.30;8.77;;;14.70;90.20;;;;;;5071257;28;20112;-60
2023/04/27 00:35:11;;;;;;;10.07;8.05;;;14.70;90.20;;;;;;5071121;28;20471;-60
2023/04/27 00:37:36;;;;;;;11.20;7.85;;;14.60;90.30;;;;;;5062988;28;20043;-60
2023/04/27 00:40:05;;;;;;;12.30;7.75;;;14.70;90.40;;;;;;5066301;28;20039;-60
2023/04/27 00:42:31;;;;;;;10.90;7.82;;;14.70;90.30;;;;;;5070589;28;20033;-60
2023/04/27 00:44:57;;;;;;;9.82;7.97;;;14.60;90.20;;;;;;5070401;28;20039;-60
2023/04/27 00:47:24;;;;;;;10.52;8.40;;;14.60;90.20;;;;;;5073004;28;20036;-60
2023/04/27 00:49:49;;;;;;;10.30;7.78;;;14.60;90.30;;;;;;5071061;28;20035;-60
2023/04/27 00:52:15;;;;;;;8.40;7.03;;;14.60;90.40;;;;;;5080705;28;20803;-60
2023/04/27 00:54:41;;;;;;;8.30;6.95;;;14.60;90.50;;;;;;5067179;28;20025;-60
2023/04/27 00:57:07;;;;;;;9.57;7.60;;;14.50;90.60;;;;;;5067083;28;20029;-60
2023/04/27 00:59:33;;;;;;;10.00;7.40;;;14.50;90.70;;;;;;5068902;28;20115;-60
2023/04/27 01:01:59;;;;;;;9.13;7.57;;;14.50;90.80;;;;;;5067531;28;20116;-60
2023/04/27 01:04:25;;;;;;;10.40;8.25;;;14.50;90.90;;;;;;5072663;28;20032;-60
2023/04/27 01:06:52;;;;;;;9.65;8.45;;;14.50;91.00;;;;;;5064860;28;20055;-60
2023/04/27 01:09:18;;;;;;;9.00;7.70;;;14.50;91.10;;;;;;5071681;28;20819;-60
2023/04/27 01:11:45;;;;;;;9.80;8.10;;;14.50;91.20;;;;;;5072121;28;20462;-60
2023/04/27 01:14:11;;;;;;;8.55;7.28;;;14.50;91.10;;;;;;5072547;28;20044;-60
2023/04/27 01:16:37;;;;;;;8.15;6.82;;;14.50;91.10;;;;;;5074560;28;20020;-60
2023/04/27 01:19:03;;;;;;;10.25;8.05;;;14.50;91.10;;;;;;5065149;28;20064;-59
2023/04/27 01:21:29;;;;;;;8.43;7.53;;;14.50;91.10;;;;;;5061778;28;20040;-59
2023/04/27 01:23:55;;;;;;;9.25;7.50;;;14.50;91.20;;;;;;5071350;28;20048;-59
2023/04/27 01:26:21;;;;;;;10.93;7.28;;;14.40;91.20;;;;;;5075910;28;20060;-52
2023/04/27 01:28:47;;;;;;;7.90;6.32;;;14.40;91.20;;;;;;5072766;28;20135;-51
2023/04/27 01:31:13;;;;;;;7.63;6.38;;;14.40;91.20;;;;;;5064492;28;20033;-50
2023/04/27 01:33:40;;;;;;;8.43;7.13;;;14.40;91.30;;;;;;5062354;28;20043;-51
2023/04/27 01:36:06;;;;;;;8.52;6.40;;;14.40;91.40;;;;;;5065600;28;20474;-60
2023/04/27 01:38:33;;;;;;;7.70;6.57;;;14.40;91.40;;;;;;5067168;28;20104;-60
2023/04/27 01:41:00;;;;;;;8.68;7.32;;;14.40;91.40;;;;;;5069501;28;20034;-48
2023/04/27 01:43:30;;;;;;;10.07;6.85;;;14.30;91.40;;;;;;5070356;28;20036;-53
2023/04/27 01:46:03;;;;;;;7.95;6.50;;;14.30;91.50;;;;;;5068953;28;20032;-52
2023/04/27 01:48:29;;;;;;;9.45;7.80;;;14.30;91.60;;;;;;5070881;28;20119;-53
2023/04/27 01:50:54;;;;;;;7.05;6.07;;;14.20;91.70;;;;;;5070733;28;20126;-60
2023/04/27 01:53:20;;;;;;;8.63;7.20;;;14.20;91.70;;;;;;5060885;28;20455;-60
2023/04/27 01:55:46;;;;;;;7.65;6.63;;;14.20;91.70;;;;;;5073429;28;20040;-58
2023/04/27 01:58:11;;;;;;;7.80;7.00;;;14.20;91.80;;;;;;5062353;28;20101;-59
2023/04/27 02:00:37;;;;;;;8.27;6.70;;;14.20;91.80;;;;;;5068405;28;20086;-59
2023/04/27 02:03:03;;;;;;;6.60;5.55;;;14.20;91.90;;;;;;5067506;28;20028;-58
2023/04/27 02:05:28;;;;;;;7.70;6.22;;;14.10;91.90;;;;;;5072038;28;20032;-60
2023/04/27 02:07:54;;;;;;;7.53;6.18;;;14.10;91.90;;;;;;5071015;28;20453;-61
2023/04/27 02:10:21;;;;;;;7.32;5.95;;;14.10;92.00;;;;;;5060168;28;20116;-60
2023/04/27 02:12:47;;;;;;;8.40;6.63;;;14.10;92.00;;;;;;5067273;28;20075;-60
2023/04/27 02:15:13;;;;;;;7.47;6.15;;;14.10;92.20;;;;;;5063310;28;20037;-60
2023/04/27 02:17:38;;;;;;;7.68;6.35;;;14.10;92.20;;;;;;5060726;28;20666;-61
2023/04/27 02:20:06;;;;;;;7.35;5.40;;;14.10;92.10;;;;;;5059304;28;20831;-60
2023/04/27 02:22:32;;;;;;;7.15;6.05;;;14.10;92.10;;;;;;5069419;28;20029;-51
2023/04/27 02:24:59;;;;;;;8.15;5.85;;;14.10;92.10;;;;;;5072118;28;20376;-51
2023/04/27 02:27:24;;;;;;;7.20;5.70;;;14.10;92.10;;;;;;5075246;28;20021;-60
2023/04/27 02:29:50;;;;;;;10.05;7.10;;;14.10;92.10;;;;;;5062412;28;20040;-60
2023/04/27 02:32:16;;;;;;;7.20;6.22;;;14.10;92.20;;;;;;5078765;28;20085;-49
2023/04/27 02:34:42;;;;;;;9.85;6.60;;;14.10;92.30;;;;;;5062662;28;20483;-48
2023/04/27 02:37:07;;;;;;;8.30;6.65;;;14.20;92.30;;;;;;5062837;28;20043;-61
2023/04/27 02:39:33;;;;;;;8.75;6.70;;;14.20;92.10;;;;;;5070040;28;20029;-61
2023/04/27 02:41:59;;;;;;;7.95;6.40;;;14.20;92.00;;;;;;5073085;28;20048;-60
2023/04/27 02:44:25;;;;;;;7.63;6.28;;;14.20;91.90;;;;;;5060214;28;20050;-60
2023/04/27 02:46:51;;;;;;;9.30;7.70;;;14.20;91.70;;;;;;5065515;28;20063;-61
2023/04/27 02:49:17;;;;;;;9.77;7.93;;;14.20;91.60;;;;;;5071414;28;20024;-59
2023/04/27 02:51:43;;;;;;;9.43;7.95;;;14.20;91.70;;;;;;5071430;28;20077;-60
2023/04/27 02:54:08;;;;;;;8.88;7.63;;;14.10;91.70;;;;;;5063877;28;20036;-60
2023/04/27 02:56:34;;;;;;;11.13;8.23;;;14.10;91.70;;;;;;5066755;28;20461;-49
2023/04/27 02:59:00;;;;;;;11.57;8.35;;;14.10;91.80;;;;;;5070448;28;20021;-52
2023/04/27 03:01:25;;;;;;;11.88;8.77;;;14.10;92.00;;;;;;5068232;28;20039;-59
2023/04/27 03:03:51;;;;;;;13.10;9.38;;;14.00;92.20;;;;;;5070041;28;20024;-60
2023/04/27 03:06:17;;;;;;;13.25;9.18;;;14.00;92.30;;;;;;5071380;28;20109;-59
2023/04/27 03:08:43;;;;;;;13.45;9.65;;;14.00;92.40;;;;;;5063039;28;20021;-59
2023/04/27 03:11:08;;;;;;;11.82;8.98;;;14.00;92.40;;;;;;5060395;28;20375;-50
2023/04/27 03:13:40;;;;;;;12.00;9.02;;;14.10;92.60;;;;;;5065962;28;20052;-51
2023/04/27 03:16:12;;;;;;;12.75;9.55;;;14.10;92.70;;;;;;5061318;28;20047;-59
2023/04/27 03:18:38;;;;;;;12.15;9.65;;;14.10;92.60;;;;;;5064256;28;20036;-59
2023/04/27 03:21:09;;;;;;;11.45;9.05;;;14.10;92.60;;;;;;5083734;28;20017;-60
2023/04/27 03:23:34;;;;;;;13.75;9.10;;;14.00;92.60;;;;;;5084797;28;20109;-60
2023/04/27 03:26:04;;;;;;;11.52;8.52;;;14.00;92.80;;;;;;5061241;28;20062;-60
2023/04/27 03:28:30;;;;;;;11.48;9.25;;;14.10;93.10;;;;;;5075564;28;20033;-60
2023/04/27 03:30:55;;;;;;;12.07;8.82;;;14.10;93.10;;;;;;5066815;28;20032;-60
2023/04/27 03:33:21;;;;;;;12.43;9.18;;;14.10;93.20;;;;;;5065015;28;20467;-59
2023/04/27 03:35:54;;;;;;;14.32;9.35;;;14.10;93.20;;;;;;5057966;28;20040;-59
2023/04/27 03:38:20;;;;;;;11.55;8.52;;;14.20;93.00;;;;;;5065857;28;20162;-58
2023/04/27 03:40:45;;;;;;;12.85;8.63;;;14.20;93.10;;;;;;5065207;28;20123;-61
2023/04/27 03:43:11;;;;;;;11.05;8.40;;;14.20;93.10;;;;;;5068781;28;20469;-61
2023/04/27 03:45:36;;;;;;;13.45;9.05;;;14.20;93.00;;;;;;5059323;28;20028;-61
2023/04/27 03:48:02;;;;;;;12.52;8.98;;;14.20;93.10;;;;;;5070670;28;20065;-60
2023/04/27 03:50:28;;;;;;;12.50;8.85;;;14.20;93.20;;;;;;5074210;28;20112;-60
2023/04/27 03:52:54;;;;;;;10.85;7.80;;;14.20;93.30;;;;;;5062710;28;20033;-60
2023/04/27 03:55:19;;;;;;;11.70;8.48;;;14.20;93.40;;;;;;5063518;28;20040;-60
2023/04/27 03:57:45;;;;;;;11.88;7.78;;;14.20;93.60;;;;;;5056637;28;20041;-60
2023/04/27 04:00:11;;;;;;;7.18;5.68;;;14.20;93.80;;;;;;5060209;28;20024;-60
2023/04/27 04:02:38;;;;;;;6.20;4.80;;;14.20;93.60;;;;;;5057601;28;20032;-60
2023/04/27 04:05:03;;;;;;;5.35;4.22;;;14.10;93.30;;;;;;5050115;28;20061;-60
2023/04/27 04:07:29;;;;;;;6.78;4.20;;;14.00;93.20;;;;;;5072606;28;20036;-59
2023/04/27 04:09:55;;;;;;;4.60;3.95;;;13.90;93.30;;;;;;5076669;28;20030;-57
2023/04/27 04:12:20;;;;;;;4.45;3.53;;;13.80;93.40;;;;;;5083458;28;20047;-59
2023/04/27 04:14:47;;;;;;;4.35;3.70;;;13.70;93.60;;;;;;5065875;28;20455;-60
2023/04/27 04:17:13;;;;;;;5.80;4.05;;;13.60;93.60;;;;;;5064260;28;20025;-58
2023/04/27 04:19:39;;;;;;;4.25;3.53;;;13.60;93.80;;;;;;5061363;28;20120;-60
2023/04/27 04:22:05;;;;;;;3.97;3.50;;;13.50;93.90;;;;;;5067281;28;20557;-59
2023/04/27 04:24:30;;;;;;;5.13;4.00;;;13.40;94.00;;;;;;5065618;28;20045;-60
2023/04/27 04:26:57;;;;;;;4.30;3.75;;;13.40;93.90;;;;;;5074020;28;20043;-61
2023/04/27 04:29:23;;;;;;;3.55;3.10;;;13.30;93.80;;;;;;5072087;28;20016;-60
2023/04/27 04:31:49;;;;;;;3.53;3.03;;;13.20;93.80;;;;;;5066423;28;20025;-60
2023/04/27 04:34:15;;;;;;;4.13;3.58;;;13.20;93.80;;;;;;5068721;28;20430;-61
2023/04/27 04:36:40;;;;;;;4.35;3.45;;;13.10;93.80;;;;;;5063446;28;20037;-62
2023/04/27 04:39:06;;;;;;;5.18;3.33;;;13.10;93.80;;;;;;5066801;28;20028;-61
2023/04/27 04:41:32;;;;;;;4.18;3.58;;;13.00;93.70;;;;;;5058110;28;20036;-58
2023/04/27 04:43:58;;;;;;;3.58;2.65;;;13.00;93.50;;;;;;5064544;28;20040;-60
2023/04/27 04:46:24;;;;;;;3.70;3.30;;;12.90;93.40;;;;;;5070979;28;20029;-60
2023/04/27 04:48:50;;;;;;;3.88;3.00;;;12.80;93.40;;;;;;5080070;28;20036;-60
2023/04/27 04:51:16;;;;;;;4.40;3.53;;;12.80;93.30;;;;;;5073727;28;20052;-60
2023/04/27 04:53:42;;;;;;;3.80;3.13;;;12.70;93.30;;;;;;5071442;28;20020;-60
2023/04/27 04:56:09;;;;;;;3.22;2.83;;;12.70;93.40;;;;;;5073674;28;20040;-60
2023/04/27 04:58:35;;;;;;;3.55;2.80;;;12.60;93.40;;;;;;5063371;28;20032;-60
2023/04/27 05:01:00;;;;;;;4.05;3.20;;;12.60;93.40;;;;;;5067749;28;20115;-60
2023/04/27 05:03:26;;;;;;;3.55;3.10;;;12.60;93.40;;;;;;5065718;28;20135;-60
2023/04/27 05:05:51;;;;;;;4.50;3.10;;;12.50;93.50;;;;;;5065390;28;20124;-60
2023/04/27 05:08:17;;;;;;;2.70;2.50;;;12.50;93.50;;;;;;5069722;28;20033;-59
2023/04/27 05:10:49;;;;;;;3.30;2.90;;;12.50;93.50;;;;;;5061437;28;20090;-60
2023/04/27 05:13:14;;;;;;;3.58;2.60;;;12.40;93.40;;;;;;5064382;28;20068;-61
2023/04/27 05:15:40;;;;;;;2.97;2.40;;;12.40;93.50;;;;;;5067961;28;20404;-60
2023/04/27 05:18:06;;;;;;;3.38;2.55;;;12.40;93.50;;;;;;5065330;28;20127;-60
2023/04/27 05:20:34;;;;;;;2.58;2.38;;;12.30;93.50;;;;;;5061311;28;20039;-59
2023/04/27 05:23:00;;;;;;;3.25;2.45;;;12.30;93.60;;;;;;5057236;28;20028;-60
2023/04/27 05:25:29;;;;;;;2.72;2.45;;;12.30;93.80;;;;;;5068948;28;20458;-60
2023/04/27 05:27:55;;;;;;;2.35;2.15;;;12.30;93.80;;;;;;5061850;28;20547;-60
2023/04/27 05:30:21;;;;;;;2.72;2.50;;;12.30;93.90;;;;;;5071372;28;20036;-60
2023/04/27 05:32:46;;;;;;;2.78;2.38;;;12.20;93.80;;;;;;5067354;28;20036;-61
2023/04/27 05:35:12;;;;;;;2.40;2.20;;;12.20;93.80;;;;;;5076117;28;20473;-59
2023/04/27 05:37:38;;;;;;;2.60;2.40;;;12.20;93.80;;;;;;5063143;28;20541;-60
2023/04/27 05:40:05;;;;;;;3.20;2.70;;;12.10;93.90;;;;;;5063415;28;20081;-60
2023/04/27 05:42:31;;;;;;;2.67;2.40;;;12.10;94.00;;;;;;5062606;28;20032;-59
2023/04/27 05:44:56;;;;;;;2.80;2.50;;;12.10;94.10;;;;;;5065607;28;20102;-60
2023/04/27 05:47:22;;;;;;;2.45;2.25;;;12.10;94.20;;;;;;5061944;28;20279;-60
2023/04/27 05:49:51;;;;;;;2.50;2.30;;;12.10;94.10;;;;;;5057141;28;20024;-59
2023/04/27 05:52:20;;;;;;;4.20;2.50;;;12.10;94.10;;;;;;5067661;28;20056;-60
2023/04/27 05:54:47;;;;;;;2.63;2.42;;;12.10;94.20;;;;;;5059646;28;20040;-60
2023/04/27 05:57:13;;;;;;;2.65;2.28;;;12.10;94.40;;;;;;5065417;28;20147;-61
2023/04/27 05:59:39;;;;;;;2.50;2.30;;;12.00;94.40;;;;;;5059423;28;20514;-59
2023/04/27 06:02:05;;;;;;;2.83;2.53;;;12.00;94.40;;;;;;5054332;28;20082;-60
2023/04/27 06:04:32;;;;;;;3.05;2.47;;;12.00;94.80;;;;;;5052590;28;20033;-60
2023/04/27 06:07:03;;;;;;;2.70;2.50;;;12.00;94.60;;;;;;5059765;28;20462;-60
2023/04/27 06:09:29;;;;;;;2.78;2.42;;;12.00;94.70;;;;;;5047655;28;20037;-59
2023/04/27 06:11:57;;;;;;;2.83;2.63;;;12.10;94.80;;;;;;5061964;28;20032;-57
2023/04/27 06:14:23;;;;;;;3.00;2.70;;;12.10;94.80;;;;;;5068585;28;20027;-59
2023/04/27 06:16:49;;;;;;;2.60;2.40;;;12.00;94.90;;;;;;5052208;28;20089;-60
2023/04/27 06:19:14;;;;;;;2.63;2.42;;;12.10;95.00;;;;;;5057536;28;20667;-60
2023/04/27 06:21:40;;;;;;;2.78;2.47;;;12.10;95.00;;;;;;5061725;28;20520;-59
2023/04/27 06:24:06;;;;;;;2.58;2.38;;;12.10;94.90;;;;;;5060009;28;20039;-59
2023/04/27 06:26:32;;;;;;;2.60;2.40;;;12.10;94.90;;;;;;5058529;28;20027;-59
2023/04/27 06:28:58;;;;;;;2.45;2.25;;;12.00;95.00;;;;;;5036265;28;20086;-59
2023/04/27 06:31:25;;;;;;;2.30;2.10;;;12.00;95.10;;;;;;5051540;28;20128;-57
2023/04/27 06:33:50;;;;;;;2.35;2.15;;;12.00;95.20;;;;;;5055400;28;20028;-59
2023/04/27 06:36:16;;;;;;;2.15;1.98;;;12.00;95.20;;;;;;5041612;28;20907;-59
2023/04/27 06:38:41;;;;;;;2.50;2.05;;;12.10;95.30;;;;;;5053401;28;20032;-55
2023/04/27 06:41:07;;;;;;;2.13;1.92;;;12.00;95.40;;;;;;5051454;28;20032;-59
2023/04/27 06:43:33;;;;;;;2.88;2.20;;;12.00;95.50;;;;;;5051014;28;20056;-58
2023/04/27 06:45:58;;;;;;;2.78;2.45;;;12.00;95.60;;;;;;5052146;28;20148;-59
2023/04/27 06:48:24;;;;;;;3.25;2.70;;;12.00;95.70;;;;;;5046860;28;20035;-59
2023/04/27 06:50:50;;;;;;;3.15;2.40;;;12.00;95.70;;;;;;5052699;28;20053;-58
2023/04/27 06:53:16;;;;;;;2.60;2.40;;;12.00;95.70;;;;;;5053149;28;20035;-60
2023/04/27 06:55:42;;;;;;;4.43;2.85;;;12.00;95.70;;;;;;5058714;28;20787;-56
2023/04/27 06:58:08;;;;;;;3.03;2.63;;;12.00;95.60;;;;;;5054342;28;20043;-56
2023/04/27 07:00:34;;;;;;;3.72;2.90;;;12.00;95.60;;;;;;5052672;28;20090;-60
2023/04/27 07:02:59;;;;;;;4.05;3.13;;;12.00;95.60;;;;;;5046853;28;20033;-60
2023/04/27 07:05:26;;;;;;;4.30;3.00;;;12.00;95.60;;;;;;5038442;28;20147;-58
2023/04/27 07:07:52;;;;;;;4.57;3.50;;;12.00;95.60;;;;;;5048876;28;20032;-60
2023/04/27 07:10:17;;;;;;;4.90;3.70;;;12.00;95.50;;;;;;5048387;28;20058;-60
2023/04/27 07:12:43;;;;;;;4.97;3.58;;;12.00;95.60;;;;;;5057617;28;20100;-59
2023/04/27 07:15:10;;;;;;;4.60;3.53;;;12.00;95.80;;;;;;5045144;28;20609;-59
2023/04/27 07:17:35;;;;;;;5.43;4.22;;;12.00;95.80;;;;;;5045831;28;20128;-58
2023/04/27 07:20:02;;;;;;;5.07;3.65;;;12.00;95.90;;;;;;5051765;28;20033;-58
2023/04/27 07:22:28;;;;;;;5.53;4.05;;;12.00;96.10;;;;;;5050271;28;20045;-61
2023/04/27 07:24:54;;;;;;;5.57;3.78;;;12.00;96.30;;;;;;5046758;28;20102;-59
2023/04/27 07:27:19;;;;;;;6.72;4.30;;;12.00;96.50;;;;;;5043311;28;20039;-60
2023/04/27 07:29:46;;;;;;;5.22;4.00;;;12.10;96.70;;;;;;5045650;28;20029;-60
2023/04/27 07:32:11;;;;;;;4.50;3.60;;;12.20;96.80;;;;;;5049942;28;20114;-55
2023/04/27 07:34:37;;;;;;;4.47;3.22;;;12.20;96.80;;;;;;5037202;28;20086;-58
2023/04/27 07:37:04;;;;;;;4.78;3.65;;;12.30;96.70;;;;;;5039403;28;20040;-58
2023/04/27 07:39:30;;;;;;;4.65;3.60;;;12.30;96.50;;;;;;5042323;28;20024;-61
2023/04/27 07:41:57;;;;;;;3.88;3.17;;;12.40;96.20;;;;;;5046742;28;20028;-60
2023/04/27 07:44:22;;;;;;;3.75;3.10;;;12.40;96.10;;;;;;5049130;28;20024;-59
2023/04/27 07:46:48;;;;;;;3.47;2.85;;;12.40;95.80;;;;;;5048964;28;20028;-57
2023/04/27 07:49:14;;;;;;;3.30;2.50;;;12.40;95.60;;;;;;5049319;28;20039;-58
2023/04/27 07:51:41;;;;;;;2.85;2.38;;;12.40;95.60;;;;;;5057063;28;20033;-55
2023/04/27 07:54:07;;;;;;;2.05;1.95;;;12.30;95.50;;;;;;5047738;28;20921;-57
2023/04/27 07:56:33;;;;;;;2.08;1.98;;;12.30;95.40;;;;;;5044944;28;20049;-59
2023/04/27 07:58:59;;;;;;;2.08;1.80;;;12.30;95.30;;;;;;5047371;28;20482;-55
2023/04/27 08:01:24;;;;;;;1.80;1.70;;;12.30;95.30;;;;;;5030312;28;20376;-56
2023/04/27 08:03:50;;;;;;;1.40;1.38;;;12.20;95.20;;;;;;5047236;28;20644;-57
2023/04/27 08:06:17;;;;;;;2.10;1.90;;;12.20;95.10;;;;;;5049855;28;20101;-57
2023/04/27 08:08:43;;;;;;;1.75;1.60;;;12.20;95.20;;;;;;5061063;28;20039;-59
2023/04/27 08:11:12;;;;;;;1.83;1.65;;;12.20;95.20;;;;;;5045237;28;20068;-58
2023/04/27 08:13:38;;;;;;;1.63;1.52;;;12.20;95.20;;;;;;5046648;28;20352;-54
2023/04/27 08:16:03;;;;;;;1.77;1.67;;;12.10;95.30;;;;;;5049238;28;20041;-57
2023/04/27 08:18:29;;;;;;;1.83;1.70;;;12.10;95.40;;;;;;5038259;28;20032;-57
2023/04/27 08:20:55;;;;;;;1.35;1.25;;;12.10;95.40;;;;;;5042543;28;20078;-55
2023/04/27 08:23:20;;;;;;;1.90;1.55;;;12.10;95.50;;;;;;5037590;28;20463;-57
2023/04/27 08:25:47;;;;;;;1.50;1.40;;;12.10;95.80;;;;;;5040877;28;21018;-59
2023/04/27 08:28:14;;;;;;;1.13;1.13;;;12.10;95.70;;;;;;5039826;28;20078;-56
2023/04/27 08:30:42;;;;;;;1.13;1.13;;;12.00;95.60;;;;;;5039512;28;20039;-50
2023/04/27 08:33:08;;;;;;;1.77;1.67;;;12.00;95.40;;;;;;5031712;28;20031;-54
2023/04/27 08:35:34;;;;;;;1.20;1.20;;;12.00;95.40;;;;;;5047435;28;20037;-53
2023/04/27 08:38:00;;;;;;;1.17;1.13;;;12.00;95.50;;;;;;5049281;28;20422;-52
2023/04/27 08:40:26;;;;;;;1.05;1.05;;;12.00;95.60;;;;;;5043874;28;20040;-55
2023/04/27 08:42:56;;;;;;;1.38;1.27;;;12.00;95.70;;;;;;5033316;28;20032;-54
2023/04/27 08:45:26;;;;;;;1.30;1.30;;;12.00;95.60;;;;;;5038966;28;20063;-57
2023/04/27 08:47:52;;;;;;;1.30;1.30;;;12.00;95.50;;;;;;5029279;28;20314;-52
2023/04/27 08:52:22;;;;;;;1.13;1.13;;;11.90;95.10;;;;;;5064048;27;20939;-57
2023/04/27 08:55:24;;;;;;;1.33;1.27;;;11.90;94.70;;;;;;5046032;27;20442;-56
2023/04/27 08:57:57;;;;;;;1.02;0.98;;;11.90;95.10;;;;;;5041485;28;21318;-55
2023/04/27 09:00:24;;;;;;;1.05;1.05;;;11.90;95.20;;;;;;5044892;28;20099;-59
2023/04/27 09:02:50;;;;;;;0.90;0.90;;;11.80;95.40;;;;;;5031496;28;20033;-56
2023/04/27 09:05:21;;;;;;;1.45;1.35;;;11.80;95.70;;;;;;5051254;28;20033;-58
2023/04/27 09:08:00;;;;;;;1.13;1.13;;;11.80;95.90;;;;;;5047240;28;20551;-60
2023/04/27 09:10:28;;;;;;;0.93;0.93;;;11.80;95.90;;;;;;5051374;28;20274;-58
2023/04/27 09:12:58;;;;;;;1.00;1.00;;;11.90;96.10;;;;;;5048051;28;20439;-58
2023/04/27 09:15:24;;;;;;;1.10;1.10;;;11.90;95.70;;;;;;5047300;28;20041;-59
2023/04/27 09:17:57;;;;;;;1.10;1.10;;;11.90;95.50;;;;;;5038355;28;20037;-58
2023/04/27 09:20:23;;;;;;;1.08;1.08;;;11.90;95.30;;;;;;5040595;28;20093;-60
2023/04/27 09:22:56;;;;;;;0.75;0.75;;;11.80;95.20;;;;;;5043318;28;20043;-61
2023/04/27 09:25:32;;;;;;;1.02;0.93;;;11.80;95.40;;;;;;5047264;28;20503;-59
2023/04/27 09:27:59;;;;;;;0.90;0.90;;;11.80;95.20;;;;;;5038856;28;20033;-58
2023/04/27 09:30:26;;;;;;;1.00;1.00;;;11.80;95.70;;;;;;5042037;28;20043;-60
2023/04/27 09:32:56;;;;;;;0.80;0.80;;;11.80;95.30;;;;;;5044968;28;20044;-58
2023/04/27 09:35:28;;;;;;;0.73;0.73;;;11.80;95.50;;;;;;5041561;28;20512;-60
2023/04/27 09:37:55;;;;;;;0.85;0.85;;;11.80;95.40;;;;;;5039052;28;20090;-59
2023/04/27 09:40:32;;;;;;;1.08;1.08;;;11.90;95.60;;;;;;5046321;28;20033;-60
2023/04/27 09:43:02;;;;;;;0.90;0.90;;;11.90;95.60;;;;;;5035662;28;20116;-59
2023/04/27 09:45:28;;;;;;;0.90;0.90;;;12.00;95.60;;;;;;5040010;28;20400;-59
2023/04/27 09:47:53;;;;;;;0.70;0.70;;;12.00;95.30;;;;;;5036827;28;20745;-58
2023/04/27 09:50:20;;;;;;;1.00;1.00;;;12.00;95.20;;;;;;5035988;28;20028;-59
2023/04/27 09:52:46;;;;;;;1.05;1.05;;;12.10;95.00;;;;;;5028281;28;20063;-60
2023/04/27 09:55:18;;;;;;;1.20;1.20;;;12.10;94.80;;;;;;5039778;28;20056;-59
2023/04/27 09:57:53;;;;;;;0.90;0.90;;;12.10;94.40;;;;;;5035006;28;20087;-59
2023/04/27 10:00:40;;;;;;;1.40;1.30;;;12.10;94.40;;;;;;5029721;28;20033;-60
2023/04/27 10:03:18;;;;;;;1.45;1.40;;;12.10;94.10;;;;;;5031340;28;20038;-60
2023/04/27 10:05:56;;;;;;;1.17;1.08;;;12.10;94.10;;;;;;5029893;28;20784;-57
2023/04/27 10:08:22;;;;;;;1.40;1.30;;;12.00;94.00;;;;;;5027852;28;20037;-57
2023/04/27 10:10:48;;;;;;;1.10;1.10;;;12.00;94.20;;;;;;5034252;28;20077;-57
2023/04/27 10:13:21;;;;;;;1.55;1.40;;;12.00;94.10;;;;;;5034597;28;20056;-58
2023/04/27 10:15:47;;;;;;;1.92;1.50;;;12.00;94.00;;;;;;5038100;28;20044;-58
2023/04/27 10:18:27;;;;;;;1.45;1.38;;;11.90;94.10;;;;;;5030400;28;20522;-58
2023/04/27 10:20:53;;;;;;;1.52;1.42;;;11.90;94.00;;;;;;5035692;28;20033;-57
2023/04/27 10:23:26;;;;;;;1.65;1.55;;;11.90;94.20;;;;;;5032014;28;20041;-59
2023/04/27 10:25:53;;;;;;;1.45;1.40;;;11.90;94.40;;;;;;5027210;28;20049;-58
2023/04/27 10:28:21;;;;;;;1.60;1.50;;;11.90;94.40;;;;;;5034200;28;20081;-56
2023/04/27 10:30:47;;;;;;;1.23;1.23;;;12.00;94.30;;;;;;5025919;28;20044;-59
2023/04/27 10:33:18;;;;;;;1.40;1.30;;;12.00;94.10;;;;;;5032844;28;20799;-61
2023/04/27 10:35:53;;;;;;;1.10;1.10;;;12.00;93.90;;;;;;5032372;28;20064;-59
2023/04/27 10:38:25;;;;;;;1.45;1.35;;;12.00;93.80;;;;;;5028166;28;20100;-58
2023/04/27 10:41:04;;;;;;;1.20;1.17;;;12.00;94.00;;;;;;5026842;28;20033;-58
2023/04/27 10:43:33;;;;;;;1.30;1.20;;;12.10;94.00;;;;;;5038148;28;20108;-56
2023/04/27 10:46:13;;;;;;;1.38;1.38;;;12.10;94.00;;;;;;5033809;28;20151;-57
2023/04/27 10:48:43;;;;;;;1.10;1.10;;;12.10;93.70;;;;;;5022704;28;20078;-58
2023/04/27 10:51:08;;;;;;;1.25;1.25;;;12.10;93.70;;;;;;5034510;28;21285;-57
2023/04/27 10:53:35;;;;;;;1.27;1.27;;;12.10;93.80;;;;;;5020965;28;20053;-58
2023/04/27 10:56:01;;;;;;;1.30;1.20;;;12.10;93.40;;;;;;5031387;28;20096;-55
2023/04/27 10:58:27;;;;;;;1.35;1.25;;;12.10;93.30;;;;;;5029335;28;20116;-60
2023/04/27 11:00:52;;;;;;;1.10;1.10;;;12.10;93.30;;;;;;5024021;28;20094;-59
2023/04/27 11:03:22;;;;;;;1.30;1.20;;;12.10;93.50;;;;;;5023036;28;20609;-58
2023/04/27 11:08:46;;;;;;;1.10;1.10;;;12.10;92.80;;;;;;5042586;27;20496;-58
2023/04/27 11:11:16;;;;;;;1.17;1.17;;;12.10;92.60;;;;;;5060341;28;20112;-59
2023/04/27 11:13:43;;;;;;;1.00;1.00;;;12.10;92.70;;;;;;5065944;28;20046;-59
2023/04/27 11:16:10;;;;;;;1.10;1.10;;;12.00;92.80;;;;;;5067134;28;20045;-61
2023/04/27 11:18:38;;;;;;;0.90;0.90;;;12.00;92.90;;;;;;5061222;28;20028;-59
2023/04/27 11:21:11;;;;;;;1.05;1.05;;;12.00;92.90;;;;;;5064487;28;20477;-59
2023/04/27 11:23:38;;;;;;;0.90;0.90;;;12.00;92.80;;;;;;5052786;28;20922;-60
2023/04/27 11:26:15;;;;;;;1.17;1.17;;;12.00;92.80;;;;;;5059230;28;20032;-60
2023/04/27 11:28:43;;;;;;;1.63;1.52;;;11.90;92.60;;;;;;5068108;28;20032;-60
2023/04/27 11:31:09;;;;;;;1.00;1.00;;;11.90;92.50;;;;;;5066109;28;20028;-60
2023/04/27 11:33:35;;;;;;;0.90;0.90;;;11.90;92.60;;;;;;5067289;28;20035;-60
2023/04/27 11:36:00;;;;;;;0.70;0.70;;;11.80;92.60;;;;;;5055463;28;20032;-58
2023/04/27 11:38:32;;;;;;;0.90;0.90;;;11.80;92.60;;;;;;5063427;28;20442;-59
2023/04/27 11:41:00;;;;;;;0.80;0.80;;;11.70;92.80;;;;;;5060252;28;20035;-60
2023/04/27 11:43:26;;;;;;;0.90;0.90;;;11.70;93.10;;;;;;5069083;28;20029;-58
2023/04/27 11:45:52;;;;;;;0.95;0.95;;;11.70;93.00;;;;;;5064991;28;20063;-50
2023/04/27 11:48:18;;;;;;;0.80;0.80;;;11.70;93.00;;;;;;5065507;28;20028;-56
2023/04/27 11:50:47;;;;;;;0.80;0.80;;;11.60;93.30;;;;;;5063040;28;20036;-58
2023/04/27 11:53:13;;;;;;;0.60;0.60;;;11.60;93.00;;;;;;5066477;28;20072;-57
2023/04/27 11:55:41;;;;;;;0.90;0.90;;;11.60;93.00;;;;;;5058076;28;20037;-58
2023/04/27 11:58:16;;;;;;;0.70;0.70;;;11.50;92.80;;;;;;5065420;28;20044;-58
2023/04/27 12:00:42;;;;;;;0.90;0.90;;;11.50;93.00;;;;;;5070295;28;20473;-59
2023/04/27 12:03:08;;;;;;;0.80;0.80;;;11.50;93.20;;;;;;5063894;28;20039;-59
2023/04/27 12:05:34;;;;;;;0.77;0.77;;;11.50;93.30;;;;;;5048796;28;20054;-60
2023/04/27 12:08:00;;;;;;;0.80;0.80;;;11.40;93.30;;;;;;5058002;28;20159;-58
2023/04/27 12:10:26;;;;;;;0.90;0.90;;;11.40;93.50;;;;;;5062129;28;20762;-58
2023/04/27 12:12:52;;;;;;;0.90;0.90;;;11.40;93.50;;;;;;5049193;28;20032;-59
2023/04/27 12:15:18;;;;;;;0.82;0.82;;;11.40;93.50;;;;;;5057503;28;20651;-58
2023/04/27 12:17:43;;;;;;;0.90;0.90;;;11.30;93.60;;;;;;5065200;28;20035;-59
2023/04/27 12:20:10;;;;;;;1.00;1.00;;;11.30;93.70;;;;;;5048352;28;20466;-60
2023/04/27 12:22:36;;;;;;;0.70;0.70;;;11.30;93.60;;;;;;5050913;28;20127;-59
2023/04/27 12:25:01;;;;;;;1.00;1.00;;;11.30;93.60;;;;;;5049313;28;20032;-58
2023/04/27 12:27:27;;;;;;;0.95;0.95;;;11.30;93.60;;;;;;5051780;28;20489;-60
2023/04/27 12:29:53;;;;;;;1.23;0.90;;;11.20;93.70;;;;;;5049969;28;20352;-58
2023/04/27 12:32:19;;;;;;;0.80;0.80;;;11.20;93.80;;;;;;5049213;28;20029;-58
2023/04/27 12:34:46;;;;;;;0.90;0.90;;;11.20;93.80;;;;;;5042995;28;20139;-57
2023/04/27 12:37:11;;;;;;;0.88;0.88;;;11.20;93.80;;;;;;5049075;28;20041;-59
2023/04/27 12:39:37;;;;;;;0.98;0.98;;;11.20;94.10;;;;;;5052786;28;20036;-58
2023/04/27 12:42:03;;;;;;;1.00;1.00;;;11.10;94.20;;;;;;5050342;28;20047;-58
2023/04/27 12:44:29;;;;;;;1.48;1.25;;;11.10;94.30;;;;;;5049842;28;20052;-57
2023/04/27 12:46:55;;;;;;;1.10;1.10;;;11.20;94.40;;;;;;5052165;28;20735;-58
2023/04/27 12:49:20;;;;;;;1.10;1.10;;;11.20;94.50;;;;;;5054911;28;21829;-58